Time;durP1;ratioP1;P1;durP2;ratioP2;P2;SDS_P1;SDS_P2;PMS_P1;PMS_P2;Temp;Humidity;BMP_temperature;BMP_pressure;BME280_temperature;BME280_humidity;BME280_pressure;Samples;Min_cycle;Max_cycle;Signal;HPM_P1;HPM_P2
2021/07/01 00:00:03;;;;;;;23.10;20.70;;;13.70;99.90;;;;;;4904623;29;20473;-60
2021/07/01 00:02:30;;;;;;;27.73;24.10;;;13.60;99.90;;;;;;4902924;29;20474;-60
2021/07/01 00:04:57;;;;;;;26.07;23.30;;;13.60;99.90;;;;;;4897296;29;20473;-59
2021/07/01 00:07:24;;;;;;;24.07;21.37;;;13.60;99.90;;;;;;4904216;29;20473;-60
2021/07/01 00:09:51;;;;;;;28.60;23.27;;;13.70;99.90;;;;;;4903587;29;20477;-60
2021/07/01 00:12:20;;;;;;;25.70;22.93;;;13.80;99.90;;;;;;4903956;29;20788;-59
2021/07/01 00:14:47;;;;;;;24.00;19.70;;;13.70;99.90;;;;;;4895344;29;20502;-60
2021/07/01 00:17:14;;;;;;;24.63;21.63;;;13.70;99.90;;;;;;4904573;29;20481;-60
2021/07/01 00:19:41;;;;;;;22.10;19.67;;;13.70;99.90;;;;;;4903214;29;20482;-60
2021/07/01 00:22:08;;;;;;;22.03;19.70;;;13.70;99.90;;;;;;4903808;29;20473;-59
2021/07/01 00:24:36;;;;;;;22.27;20.03;;;13.60;99.90;;;;;;4903963;29;20469;-60
2021/07/01 00:27:05;;;;;;;22.73;19.70;;;13.60;99.90;;;;;;4903732;29;20474;-60
2021/07/01 00:29:34;;;;;;;21.90;18.40;;;13.60;99.90;;;;;;4904181;29;20452;-60
2021/07/01 00:32:01;;;;;;;24.37;21.13;;;13.70;99.90;;;;;;4903829;29;20501;-60
2021/07/01 00:34:28;;;;;;;22.13;19.97;;;13.60;99.90;;;;;;4902886;29;20587;-60
2021/07/01 00:36:59;;;;;;;22.30;18.97;;;13.60;99.90;;;;;;4904003;29;20758;-60
2021/07/01 00:39:26;;;;;;;22.60;20.20;;;13.60;99.90;;;;;;4903279;29;20469;-60
2021/07/01 00:41:54;;;;;;;21.27;18.93;;;13.60;99.90;;;;;;4902132;29;20792;-60
2021/07/01 00:44:21;;;;;;;21.93;19.70;;;13.70;99.90;;;;;;4903543;29;20926;-59
2021/07/01 00:46:49;;;;;;;23.00;19.60;;;13.70;99.90;;;;;;4902711;29;20452;-59
2021/07/01 00:49:19;;;;;;;26.20;20.63;;;13.70;99.90;;;;;;4903962;29;20469;-59
2021/07/01 00:51:46;;;;;;;22.20;19.90;;;13.80;99.90;;;;;;4895530;29;20473;-58
2021/07/01 00:54:14;;;;;;;22.40;20.00;;;13.80;99.90;;;;;;4898283;29;20508;-60
2021/07/01 00:56:41;;;;;;;20.47;17.63;;;13.70;99.90;;;;;;4904056;29;20839;-59
2021/07/01 00:59:11;;;;;;;18.93;17.13;;;13.70;99.90;;;;;;4903283;29;20481;-59
2021/07/01 01:01:41;;;;;;;21.10;18.90;;;13.60;99.90;;;;;;4903211;29;20448;-56
2021/07/01 01:04:10;;;;;;;22.33;20.10;;;13.60;99.90;;;;;;4903353;29;20440;-58
2021/07/01 01:06:38;;;;;;;21.77;19.67;;;13.60;99.90;;;;;;4893194;29;20911;-54
2021/07/01 01:09:09;;;;;;;20.70;18.60;;;13.50;99.90;;;;;;4903006;29;20444;-56
2021/07/01 01:11:36;;;;;;;22.53;20.13;;;13.60;99.90;;;;;;4903119;29;20473;-57
2021/07/01 01:14:03;;;;;;;22.93;20.60;;;13.60;99.90;;;;;;4902061;29;20596;-59
2021/07/01 01:16:31;;;;;;;22.97;20.63;;;13.60;99.90;;;;;;4903132;29;20897;-58
2021/07/01 01:18:58;;;;;;;20.73;18.60;;;13.60;99.90;;;;;;4902785;29;20533;-59
2021/07/01 01:21:28;;;;;;;22.60;20.07;;;13.60;99.90;;;;;;4902013;29;20477;-56
2021/07/01 01:23:58;;;;;;;25.37;21.47;;;13.60;99.90;;;;;;4896659;29;20480;-58
2021/07/01 01:26:27;;;;;;;25.60;21.47;;;13.60;99.90;;;;;;4896979;29;20448;-59
2021/07/01 01:28:55;;;;;;;25.07;22.00;;;13.50;99.90;;;;;;4902786;29;20978;-56
2021/07/01 01:31:22;;;;;;;22.77;20.43;;;13.70;99.90;;;;;;4902756;29;20564;-59
2021/07/01 01:33:54;;;;;;;25.33;22.43;;;13.60;99.90;;;;;;4901682;29;20484;-57
2021/07/01 01:36:21;;;;;;;29.60;23.47;;;13.70;99.90;;;;;;4902616;29;20921;-59
2021/07/01 01:38:48;;;;;;;29.90;22.57;;;13.70;99.90;;;;;;4902930;29;20899;-60
2021/07/01 01:41:16;;;;;;;25.90;22.90;;;13.60;99.90;;;;;;4902239;29;20477;-60
2021/07/01 01:43:43;;;;;;;26.23;23.43;;;13.60;99.90;;;;;;4902726;29;20819;-60
2021/07/01 01:46:10;;;;;;;25.17;21.63;;;13.60;99.90;;;;;;4902349;29;20563;-59
2021/07/01 01:48:37;;;;;;;25.30;22.63;;;13.50;99.90;;;;;;4901601;29;20574;-60
2021/07/01 01:51:04;;;;;;;22.87;20.37;;;13.50;99.90;;;;;;4896841;29;20478;-58
2021/07/01 02:30:31;;;;;;;27.23;21.93;;;13.50;99.90;;;;;;5173792;23;20507;-59
2021/07/01 02:32:58;;;;;;;23.53;21.03;;;13.50;99.90;;;;;;4919509;29;20488;-59
2021/07/01 02:35:25;;;;;;;23.27;20.53;;;13.50;99.90;;;;;;4921589;29;20934;-58
2021/07/01 02:37:52;;;;;;;21.73;18.37;;;13.50;99.90;;;;;;4919059;29;20487;-59
2021/07/01 02:40:19;;;;;;;19.20;17.20;;;13.50;99.90;;;;;;4920543;29;20805;-58
2021/07/01 02:42:46;;;;;;;23.13;16.70;;;13.40;99.90;;;;;;4920159;29;20476;-59
2021/07/01 02:45:13;;;;;;;17.73;15.57;;;13.40;99.90;;;;;;4919951;29;20546;-60
2021/07/01 02:47:42;;;;;;;17.87;16.00;;;13.40;99.90;;;;;;4918564;29;20489;-59
2021/07/01 02:50:13;;;;;;;19.33;14.93;;;13.40;99.90;;;;;;4920572;29;20980;-60
2021/07/01 02:52:40;;;;;;;20.00;15.70;;;13.40;99.90;;;;;;4920315;29;20469;-60
2021/07/01 02:55:09;;;;;;;20.50;16.03;;;13.40;99.90;;;;;;4919779;29;20843;-61
2021/07/01 02:57:37;;;;;;;23.43;16.90;;;13.40;99.90;;;;;;4920623;29;20495;-61
2021/07/01 03:00:06;;;;;;;18.73;16.93;;;13.40;99.90;;;;;;4920752;29;20881;-59
2021/07/01 03:02:33;;;;;;;18.00;16.10;;;13.40;99.90;;;;;;4921081;29;20473;-60
2021/07/01 03:05:02;;;;;;;17.27;15.50;;;13.40;99.90;;;;;;4917227;29;20480;-60
2021/07/01 03:07:29;;;;;;;18.53;15.80;;;13.30;99.90;;;;;;4924110;29;20468;-61
2021/07/01 03:09:56;;;;;;;19.13;15.63;;;13.40;99.90;;;;;;4922594;29;20461;-60
2021/07/01 03:12:24;;;;;;;18.23;15.27;;;13.30;99.90;;;;;;4924536;29;20477;-60
2021/07/01 03:14:51;;;;;;;19.30;15.67;;;13.30;99.90;;;;;;4922926;29;20559;-60
2021/07/01 03:17:39;;;;;;;18.30;15.73;;;13.30;99.90;;;;;;4924428;29;20476;-60
2021/07/01 03:20:08;;;;;;;21.77;16.33;;;13.30;99.90;;;;;;4917855;29;20514;-60
2021/07/01 03:22:36;;;;;;;18.77;15.63;;;13.30;99.90;;;;;;4919433;29;20468;-61
2021/07/01 03:25:03;;;;;;;22.73;15.97;;;13.30;99.90;;;;;;4923149;29;20462;-60
2021/07/01 03:27:30;;;;;;;17.53;15.70;;;13.40;99.90;;;;;;4924358;29;20510;-59
2021/07/01 03:29:59;;;;;;;17.40;15.00;;;13.30;99.90;;;;;;4923420;29;20901;-56
2021/07/01 03:32:27;;;;;;;22.77;17.10;;;13.30;99.90;;;;;;4924004;29;20857;-59
2021/07/01 03:34:54;;;;;;;24.90;16.80;;;13.30;99.90;;;;;;4922805;29;20579;-59
2021/07/01 03:37:22;;;;;;;19.03;17.03;;;13.40;99.90;;;;;;4923934;29;20480;-59
2021/07/01 04:16:52;;;;;;;11.43;10.23;;;13.20;99.90;;;;;;4560912;23;20652;-60
2021/07/01 04:19:19;;;;;;;9.53;8.00;;;13.20;99.90;;;;;;4903090;29;20481;-62
2021/07/01 04:21:46;;;;;;;10.17;8.53;;;13.20;99.90;;;;;;4896435;29;20882;-60
2021/07/01 04:24:13;;;;;;;10.50;9.40;;;13.20;99.90;;;;;;4903085;29;20550;-60
2021/07/01 04:26:40;;;;;;;9.60;8.60;;;13.20;99.90;;;;;;4904406;29;20477;-60
2021/07/01 04:29:07;;;;;;;11.20;9.90;;;13.20;99.90;;;;;;4903913;29;20473;-59
2021/07/01 04:31:34;;;;;;;11.07;9.93;;;13.20;99.90;;;;;;4903219;29;20918;-60
2021/07/01 04:34:04;;;;;;;10.93;9.83;;;13.20;99.90;;;;;;4903988;29;20613;-61
2021/07/01 04:36:31;;;;;;;13.83;10.77;;;13.30;99.90;;;;;;4902657;29;20481;-58
2021/07/01 04:38:58;;;;;;;13.20;9.90;;;13.30;99.90;;;;;;4902140;29;20911;-61
2021/07/01 04:41:25;;;;;;;11.00;9.00;;;13.30;99.90;;;;;;4902833;29;20481;-60
2021/07/01 04:43:52;;;;;;;9.53;8.63;;;13.30;99.90;;;;;;4900907;29;20485;-60
2021/07/01 04:46:22;;;;;;;10.30;8.47;;;13.30;99.90;;;;;;4903279;29;20473;-61
2021/07/01 04:48:53;;;;;;;8.37;7.60;;;13.20;99.90;;;;;;4900585;29;20778;-61
2021/07/01 04:51:21;;;;;;;10.47;8.97;;;13.30;99.90;;;;;;4903184;29;20473;-61
2021/07/01 04:53:48;;;;;;;8.93;8.03;;;13.30;99.90;;;;;;4902837;29;20477;-61
2021/07/01 04:56:15;;;;;;;8.53;7.70;;;13.40;99.90;;;;;;4902446;29;20958;-61
2021/07/01 04:58:42;;;;;;;9.27;7.53;;;13.40;99.90;;;;;;4903443;29;20917;-61
2021/07/01 05:01:09;;;;;;;6.83;6.13;;;13.40;99.90;;;;;;4902101;29;20915;-61
2021/07/01 05:03:37;;;;;;;9.40;7.17;;;13.20;99.90;;;;;;4896669;29;20481;-61
2021/07/01 05:06:04;;;;;;;9.90;7.97;;;13.20;99.90;;;;;;4900129;29;20481;-60
2021/07/01 05:08:32;;;;;;;11.50;9.90;;;13.20;99.90;;;;;;4898948;29;20945;-61
2021/07/01 05:10:59;;;;;;;16.30;11.50;;;13.20;99.90;;;;;;4903317;29;20481;-61
2021/07/01 05:13:27;;;;;;;19.83;16.93;;;13.30;99.90;;;;;;4902447;29;20482;-61
2021/07/01 05:15:54;;;;;;;21.17;16.70;;;13.30;99.90;;;;;;4895648;29;21030;-61
2021/07/01 05:18:21;;;;;;;21.70;16.00;;;13.30;99.90;;;;;;4883814;29;20482;-60
2021/07/01 05:20:48;;;;;;;19.17;15.83;;;13.30;99.90;;;;;;4884024;29;20476;-60
2021/07/01 05:23:15;;;;;;;20.37;17.13;;;13.30;99.90;;;;;;4883322;29;20482;-61
2021/07/01 05:25:43;;;;;;;17.53;15.57;;;13.30;99.90;;;;;;4883592;29;20470;-60
2021/07/01 05:28:12;;;;;;;19.20;16.23;;;13.30;99.90;;;;;;4877414;29;20910;-60
2021/07/01 05:30:39;;;;;;;17.53;15.47;;;13.40;99.90;;;;;;4878254;29;20829;-60
2021/07/01 05:33:06;;;;;;;21.90;16.60;;;13.30;99.90;;;;;;4884197;29;20486;-60
2021/07/01 05:35:39;;;;;;;18.00;14.70;;;13.40;99.90;;;;;;4883617;29;20502;-60
2021/07/01 05:38:06;;;;;;;19.30;16.53;;;13.40;99.90;;;;;;4883406;29;20481;-60
2021/07/01 05:40:33;;;;;;;21.67;17.30;;;13.40;99.90;;;;;;4882886;29;20478;-59
2021/07/01 05:43:05;;;;;;;19.80;16.00;;;13.40;99.90;;;;;;4884528;29;20768;-60
2021/07/01 05:45:32;;;;;;;20.70;17.17;;;13.40;99.90;;;;;;4884291;29;20477;-60
2021/07/01 05:47:59;;;;;;;23.53;19.53;;;13.40;99.90;;;;;;4882796;29;20483;-60
2021/07/01 05:50:26;;;;;;;25.00;18.17;;;13.30;99.90;;;;;;4883894;29;20474;-59
2021/07/01 05:52:57;;;;;;;21.30;18.47;;;13.30;99.90;;;;;;4882669;29;20482;-60
2021/07/01 05:55:27;;;;;;;18.57;16.50;;;13.30;99.90;;;;;;4883469;29;20800;-59
2021/07/01 05:57:54;;;;;;;21.37;16.90;;;13.20;99.90;;;;;;4883462;29;20788;-61
2021/07/01 06:00:23;;;;;;;30.77;22.97;;;13.20;99.90;;;;;;4882045;29;20482;-59
2021/07/01 06:02:50;;;;;;;30.60;24.00;;;13.20;99.90;;;;;;4879233;29;20573;-60
2021/07/01 06:05:17;;;;;;;28.87;21.77;;;13.20;99.90;;;;;;4878298;29;20557;-57
2021/07/01 06:07:53;;;;;;;29.60;21.50;;;13.20;99.90;;;;;;4875872;29;20776;-59
2021/07/01 06:10:21;;;;;;;24.30;20.93;;;13.30;99.90;;;;;;4882927;29;20479;-59
2021/07/01 06:12:48;;;;;;;19.73;16.10;;;13.40;99.90;;;;;;4877738;29;20470;-59
2021/07/01 06:15:15;;;;;;;20.43;15.20;;;13.40;99.90;;;;;;4883441;29;20498;-60
2021/07/01 06:17:44;;;;;;;17.37;13.53;;;13.40;99.90;;;;;;4900826;29;20473;-60
2021/07/01 06:20:12;;;;;;;29.77;15.47;;;13.30;99.90;;;;;;4902447;29;20469;-60
2021/07/01 06:22:41;;;;;;;15.27;13.70;;;13.30;99.90;;;;;;4901220;29;20485;-59
2021/07/01 06:25:09;;;;;;;19.03;12.70;;;13.30;99.90;;;;;;4901955;29;20533;-60
2021/07/01 06:27:38;;;;;;;16.83;13.43;;;13.40;99.90;;;;;;4900633;29;20902;-60
2021/07/01 06:30:14;;;;;;;17.00;13.70;;;13.40;99.90;;;;;;4900728;29;20537;-60
2021/07/01 06:32:45;;;;;;;21.13;16.67;;;13.40;99.90;;;;;;4902040;29;20480;-60
2021/07/01 06:35:13;;;;;;;21.37;17.03;;;13.40;99.90;;;;;;4900935;29;20497;-60
2021/07/01 06:37:41;;;;;;;30.50;20.70;;;13.40;99.90;;;;;;4901645;29;20856;-59
2021/07/01 06:40:11;;;;;;;25.53;20.90;;;13.30;99.90;;;;;;4902517;29;20838;-60
2021/07/01 06:42:44;;;;;;;29.57;24.40;;;13.20;99.90;;;;;;4901140;29;20474;-60
2021/07/01 06:45:13;;;;;;;29.60;21.53;;;13.30;99.90;;;;;;4901376;29;20482;-60
2021/07/01 06:47:45;;;;;;;25.40;21.70;;;13.40;99.90;;;;;;4901493;29;20541;-60
2021/07/01 06:50:17;;;;;;;25.63;20.83;;;13.40;99.90;;;;;;4901127;29;20488;-59
2021/07/01 06:52:47;;;;;;;27.03;21.60;;;13.40;99.90;;;;;;4895569;29;20473;-59
2021/07/01 06:55:15;;;;;;;26.60;22.10;;;13.40;99.90;;;;;;4901822;29;20494;-60
2021/07/01 06:57:42;;;;;;;24.90;21.77;;;13.40;99.90;;;;;;4901187;29;20481;-59
2021/07/01 07:00:13;;;;;;;29.47;22.10;;;13.40;99.90;;;;;;4901636;29;20846;-59
2021/07/01 07:02:43;;;;;;;25.00;18.53;;;13.40;99.90;;;;;;4898348;29;20477;-60
2021/07/01 07:05:16;;;;;;;22.67;17.90;;;13.40;99.90;;;;;;4895034;29;20898;-60
2021/07/01 07:07:45;;;;;;;26.93;17.93;;;13.40;99.90;;;;;;4906215;29;20759;-60
2021/07/01 07:10:14;;;;;;;20.83;16.80;;;13.40;99.90;;;;;;4901878;29;20469;-60
2021/07/01 07:12:43;;;;;;;19.20;15.03;;;13.50;99.90;;;;;;4898960;29;20484;-60
2021/07/01 07:15:12;;;;;;;21.23;14.83;;;13.50;99.90;;;;;;4895838;29;20474;-60
2021/07/01 07:17:41;;;;;;;23.90;15.83;;;13.50;99.90;;;;;;4895188;29;20581;-60
2021/07/01 07:20:09;;;;;;;21.33;16.70;;;13.50;99.90;;;;;;4901592;29;20530;-60
2021/07/01 07:22:40;;;;;;;17.57;13.53;;;13.50;99.90;;;;;;4901242;29;20474;-60
2021/07/01 07:25:10;;;;;;;15.70;14.00;;;13.50;99.90;;;;;;4896347;29;20949;-59
2021/07/01 07:27:39;;;;;;;15.63;13.60;;;13.50;99.90;;;;;;4899931;29;20521;-60
2021/07/01 07:30:11;;;;;;;15.83;14.13;;;13.40;99.90;;;;;;4900056;29;20488;-60
2021/07/01 07:32:42;;;;;;;19.73;17.63;;;13.30;99.90;;;;;;4901298;29;20934;-58
2021/07/01 07:35:12;;;;;;;18.23;16.33;;;13.20;99.90;;;;;;4900628;29;20481;-59
2021/07/01 07:37:45;;;;;;;22.70;16.43;;;13.20;99.90;;;;;;4901398;29;20481;-60
2021/07/01 07:40:13;;;;;;;19.77;16.10;;;13.40;99.90;;;;;;4900212;29;20473;-60
2021/07/01 07:42:44;;;;;;;19.00;15.33;;;13.30;99.90;;;;;;4900872;29;20477;-60
2021/07/01 07:45:14;;;;;;;20.63;16.60;;;13.40;99.90;;;;;;4901640;29;20834;-60
2021/07/01 07:47:42;;;;;;;18.13;15.50;;;13.40;99.90;;;;;;4901174;29;20488;-60
2021/07/01 07:50:10;;;;;;;22.40;16.23;;;13.30;99.90;;;;;;4904952;29;20486;-60
2021/07/01 07:52:45;;;;;;;20.47;15.77;;;13.40;99.90;;;;;;4904646;29;20472;-60
2021/07/01 07:55:16;;;;;;;28.67;19.03;;;13.20;99.90;;;;;;4904206;29;20790;-60
2021/07/01 07:57:46;;;;;;;23.67;17.57;;;13.20;99.90;;;;;;4904916;29;20898;-61
2021/07/01 08:00:14;;;;;;;20.90;17.67;;;13.20;99.90;;;;;;4903709;29;20589;-60
2021/07/01 08:02:47;;;;;;;21.43;18.17;;;13.20;99.90;;;;;;4901430;29;20513;-62
2021/07/01 08:05:19;;;;;;;21.27;16.60;;;13.20;99.90;;;;;;4898519;29;20950;-60
2021/07/01 08:07:47;;;;;;;20.03;16.73;;;13.20;99.90;;;;;;4904148;29;20492;-58
2021/07/01 08:10:17;;;;;;;26.97;17.43;;;13.30;99.90;;;;;;4903871;29;20481;-61
2021/07/01 08:12:48;;;;;;;21.47;14.70;;;13.40;99.90;;;;;;4903298;29;20477;-59
2021/07/01 08:15:18;;;;;;;22.10;15.90;;;13.50;99.90;;;;;;4904187;29;20481;-60
2021/07/01 08:17:46;;;;;;;19.70;16.33;;;13.60;99.90;;;;;;4903756;29;20508;-60
2021/07/01 08:20:17;;;;;;;20.20;17.03;;;13.50;99.90;;;;;;4903871;29;20477;-60
2021/07/01 08:22:46;;;;;;;24.40;16.67;;;13.60;99.90;;;;;;4902805;29;20525;-60
2021/07/01 08:25:15;;;;;;;21.20;16.10;;;13.70;99.90;;;;;;4902538;29;20531;-60
2021/07/01 08:27:44;;;;;;;19.67;17.30;;;13.60;99.90;;;;;;4904554;29;20464;-60
2021/07/01 08:30:13;;;;;;;25.23;16.40;;;13.60;99.90;;;;;;4902259;29;20947;-60
2021/07/01 08:32:42;;;;;;;22.37;17.20;;;13.50;99.90;;;;;;4904105;29;20532;-60
2021/07/01 08:35:13;;;;;;;19.00;17.00;;;13.50;99.90;;;;;;4904303;29;20886;-57
2021/07/01 08:37:44;;;;;;;21.10;16.00;;;13.40;99.90;;;;;;4903260;29;20565;-59
2021/07/01 08:40:14;;;;;;;20.70;17.17;;;13.40;99.90;;;;;;4903099;29;20469;-60
2021/07/01 08:42:53;;;;;;;25.40;17.20;;;13.40;99.90;;;;;;4903029;29;20481;-60
2021/07/01 08:45:22;;;;;;;27.53;17.93;;;13.40;99.90;;;;;;4903692;29;20906;-60
2021/07/01 08:48:00;;;;;;;23.17;18.50;;;13.50;99.90;;;;;;4902924;29;20477;-60
2021/07/01 08:50:32;;;;;;;22.30;18.13;;;13.50;99.90;;;;;;4903270;29;20842;-61
2021/07/01 08:53:04;;;;;;;18.37;16.27;;;13.50;99.90;;;;;;4904191;29;20767;-60
2021/07/01 08:55:32;;;;;;;21.73;17.07;;;13.60;99.90;;;;;;4902665;29;20484;-60
2021/07/01 08:58:01;;;;;;;22.50;17.63;;;13.50;99.90;;;;;;4903685;29;20573;-60
2021/07/01 09:00:29;;;;;;;19.73;17.00;;;13.50;99.90;;;;;;4901454;29;20790;-60
2021/07/01 09:03:08;;;;;;;21.50;16.80;;;13.30;99.90;;;;;;4899052;29;20474;-60
2021/07/01 09:05:40;;;;;;;21.20;16.20;;;13.30;99.90;;;;;;4899033;29;20481;-59
2021/07/01 09:08:11;;;;;;;20.40;15.70;;;13.40;99.90;;;;;;4902906;29;20476;-60
2021/07/01 09:10:38;;;;;;;19.20;16.73;;;13.50;99.90;;;;;;4902535;29;20469;-61
2021/07/01 09:13:11;;;;;;;20.93;17.80;;;13.60;99.90;;;;;;4902807;29;20473;-60
2021/07/01 09:15:38;;;;;;;19.57;16.70;;;13.60;99.90;;;;;;4902552;29;20529;-59
2021/07/01 09:18:09;;;;;;;22.63;16.77;;;13.60;99.90;;;;;;4902881;29;20891;-59
2021/07/01 09:20:38;;;;;;;19.03;16.23;;;13.60;99.90;;;;;;4903489;29;20787;-58
2021/07/01 09:23:07;;;;;;;20.00;17.70;;;13.60;99.90;;;;;;4901991;29;20934;-59
2021/07/01 09:25:35;;;;;;;20.20;17.43;;;13.70;99.90;;;;;;4903091;29;20448;-59
2021/07/01 09:28:03;;;;;;;23.60;16.40;;;13.70;99.90;;;;;;4902513;29;20489;-59
2021/07/01 09:30:33;;;;;;;19.00;15.83;;;13.60;99.90;;;;;;4902773;29;20481;-60
2021/07/01 09:33:05;;;;;;;18.13;16.23;;;13.60;99.90;;;;;;4896862;29;20489;-62
2021/07/01 09:35:34;;;;;;;17.73;15.90;;;13.50;99.90;;;;;;4901537;29;20474;-60
2021/07/01 09:38:03;;;;;;;15.47;12.70;;;13.50;99.90;;;;;;4902495;29;20512;-59
2021/07/01 09:40:33;;;;;;;17.03;14.93;;;13.50;99.90;;;;;;4901558;29;20456;-60
2021/07/01 09:43:05;;;;;;;17.33;14.03;;;13.50;99.90;;;;;;4903273;29;20575;-57
2021/07/01 09:45:35;;;;;;;15.57;11.90;;;13.40;99.90;;;;;;4900837;29;20473;-60
2021/07/01 09:48:06;;;;;;;17.20;14.80;;;13.50;99.90;;;;;;4896895;29;20465;-58
2021/07/01 09:50:37;;;;;;;21.47;14.47;;;13.50;99.90;;;;;;4901925;29;20931;-59
2021/07/01 09:53:09;;;;;;;15.90;12.27;;;13.60;99.90;;;;;;4901454;29;20473;-60
2021/07/01 09:55:41;;;;;;;19.73;15.90;;;13.60;99.90;;;;;;4896372;29;20469;-59
2021/07/01 09:58:14;;;;;;;16.90;14.33;;;13.60;99.90;;;;;;4901174;29;20521;-60
2021/07/01 10:00:49;;;;;;;20.07;15.23;;;13.60;99.90;;;;;;4902361;29;20473;-60
2021/07/01 10:03:17;;;;;;;20.53;14.50;;;13.60;99.90;;;;;;4894199;29;20481;-60
2021/07/01 10:05:46;;;;;;;16.33;13.23;;;13.60;99.90;;;;;;4899657;29;20978;-59
2021/07/01 10:08:13;;;;;;;16.43;14.57;;;13.50;99.90;;;;;;4899014;29;20965;-59
2021/07/01 10:10:45;;;;;;;17.17;12.80;;;13.60;99.90;;;;;;4901519;29;20902;-58
2021/07/01 10:13:13;;;;;;;15.40;13.30;;;13.70;99.90;;;;;;4902642;29;20477;-59
2021/07/01 10:15:43;;;;;;;13.27;11.87;;;13.70;99.90;;;;;;4894382;29;20585;-58
2021/07/01 10:18:13;;;;;;;15.70;12.37;;;13.80;99.90;;;;;;4901892;29;20512;-59
2021/07/01 10:20:41;;;;;;;13.90;12.40;;;13.70;99.90;;;;;;4893308;29;20489;-60
2021/07/01 10:23:20;;;;;;;21.70;14.03;;;13.80;99.90;;;;;;4901400;29;20763;-59
2021/07/01 10:25:49;;;;;;;14.70;13.07;;;13.70;99.90;;;;;;4898275;29;20486;-59
2021/07/01 10:28:19;;;;;;;16.37;13.60;;;13.80;99.90;;;;;;4898027;29;20887;-59
2021/07/01 10:30:58;;;;;;;20.77;14.60;;;13.80;99.90;;;;;;4901602;29;20469;-58
2021/07/01 10:33:27;;;;;;;15.57;13.93;;;13.70;99.90;;;;;;4895053;29;20476;-59
2021/07/01 10:35:56;;;;;;;18.20;14.10;;;13.70;99.90;;;;;;4901869;29;20469;-59
2021/07/01 10:38:23;;;;;;;15.97;12.77;;;13.70;99.90;;;;;;4889653;29;20850;-60
2021/07/01 10:40:52;;;;;;;17.10;12.27;;;13.70;99.90;;;;;;4901905;29;20484;-60
2021/07/01 10:43:21;;;;;;;21.53;13.93;;;13.70;99.90;;;;;;4901748;29;20776;-58
2021/07/01 10:45:55;;;;;;;19.80;12.43;;;13.70;99.90;;;;;;4894061;29;20488;-59
2021/07/01 10:48:24;;;;;;;14.17;11.93;;;13.90;99.90;;;;;;4899430;29;20477;-60
2021/07/01 10:50:53;;;;;;;16.10;11.70;;;13.90;99.90;;;;;;4900952;29;20482;-59
2021/07/01 10:53:40;;;;;;;18.10;13.60;;;13.80;99.90;;;;;;4899377;29;20533;-60
2021/07/01 10:56:11;;;;;;;17.07;13.27;;;14.00;99.90;;;;;;4895585;29;20777;-58
2021/07/01 10:58:38;;;;;;;18.60;12.20;;;14.00;99.90;;;;;;4900021;29;20484;-61
2021/07/01 11:01:06;;;;;;;14.50;11.90;;;14.10;99.90;;;;;;4900177;29;20583;-61
2021/07/01 11:03:36;;;;;;;14.33;11.63;;;14.00;99.90;;;;;;4893705;29;20568;-60
2021/07/01 11:06:16;;;;;;;16.23;12.30;;;14.00;99.90;;;;;;4898810;29;20584;-60
2021/07/01 11:08:43;;;;;;;13.70;11.40;;;14.10;99.90;;;;;;4899954;29;20440;-61
2021/07/01 11:11:22;;;;;;;14.97;12.67;;;14.10;99.90;;;;;;4894657;29;20484;-60
2021/07/01 11:13:59;;;;;;;15.03;12.10;;;14.10;99.90;;;;;;4901645;29;20556;-61
2021/07/01 11:16:38;;;;;;;17.43;11.97;;;14.10;99.90;;;;;;4903124;29;20940;-60
2021/07/01 11:19:07;;;;;;;16.13;12.37;;;14.10;99.90;;;;;;4905264;29;20524;-60
2021/07/01 11:21:34;;;;;;;14.60;12.20;;;14.10;99.90;;;;;;4900810;29;20799;-59
2021/07/01 11:24:15;;;;;;;19.60;13.73;;;14.20;99.90;;;;;;4903142;29;20475;-60
2021/07/01 11:26:47;;;;;;;14.30;10.77;;;14.40;99.90;;;;;;4905264;29;20496;-59
2021/07/01 11:29:17;;;;;;;16.80;12.07;;;14.50;99.90;;;;;;4903814;29;20488;-60
2021/07/01 11:31:48;;;;;;;15.57;12.10;;;14.50;99.90;;;;;;4896615;29;20518;-60
2021/07/01 11:34:19;;;;;;;17.10;13.23;;;14.50;99.90;;;;;;4904154;29;20477;-59
2021/07/01 11:36:51;;;;;;;19.00;12.90;;;14.50;99.90;;;;;;4902623;29;20499;-60
2021/07/01 11:39:27;;;;;;;17.60;13.40;;;14.60;99.90;;;;;;4902451;29;20477;-60
2021/07/01 11:41:56;;;;;;;14.73;13.10;;;14.50;99.90;;;;;;4903793;29;20916;-60
2021/07/01 11:44:24;;;;;;;14.00;12.50;;;14.50;99.90;;;;;;4899996;29;20826;-59
2021/07/01 11:46:52;;;;;;;15.33;13.03;;;14.40;99.90;;;;;;4902448;29;20771;-58
2021/07/01 11:49:26;;;;;;;18.40;14.27;;;14.30;99.90;;;;;;4902368;29;20481;-59
2021/07/01 11:51:57;;;;;;;19.83;14.23;;;14.40;99.90;;;;;;4903153;29;20864;-54
2021/07/01 11:54:24;;;;;;;16.27;13.53;;;14.50;99.90;;;;;;4903454;29;20477;-59
2021/07/01 11:57:00;;;;;;;19.07;15.00;;;14.50;99.90;;;;;;4901309;29;20496;-59
2021/07/01 11:59:28;;;;;;;14.63;12.20;;;14.60;99.90;;;;;;4902222;29;20480;-59
2021/07/01 12:01:57;;;;;;;14.70;12.43;;;14.60;99.90;;;;;;4904322;29;20480;-58
2021/07/01 12:04:32;;;;;;;15.27;12.63;;;14.60;99.90;;;;;;4893738;29;20984;-58
2021/07/01 12:07:20;;;;;;;16.83;15.00;;;14.60;99.90;;;;;;4904170;29;20469;-59
2021/07/01 12:09:47;;;;;;;16.53;14.67;;;14.60;99.90;;;;;;4902715;29;20479;-58
2021/07/01 12:12:21;;;;;;;19.53;15.70;;;14.60;99.90;;;;;;4904318;29;20492;-58
2021/07/01 12:14:52;;;;;;;19.10;15.00;;;14.50;99.90;;;;;;4897995;29;20480;-54
2021/07/01 12:18:00;;;;;;;19.07;14.47;;;14.40;99.90;;;;;;4897347;29;20513;-59
2021/07/01 12:20:31;;;;;;;17.43;15.13;;;14.50;99.90;;;;;;4904564;29;20477;-59
2021/07/01 12:23:00;;;;;;;15.07;13.17;;;14.50;99.90;;;;;;4902760;29;20501;-60
2021/07/01 12:25:44;;;;;;;14.63;12.90;;;14.50;99.90;;;;;;4904176;29;20954;-59
2021/07/01 12:28:14;;;;;;;14.43;11.60;;;14.60;99.90;;;;;;4897925;29;20501;-59
2021/07/01 13:10:11;;;;;;;14.00;12.70;;;14.10;99.90;;;;;;4951239;23;20496;-61
2021/07/01 13:12:45;;;;;;;12.83;11.60;;;14.20;99.90;;;;;;4904273;29;20909;-60
2021/07/01 13:15:18;;;;;;;13.30;11.70;;;14.20;99.90;;;;;;4903480;29;20452;-61
2021/07/01 14:27:35;;;;;;;10.83;9.23;;;14.30;99.90;;;;;;3933544;23;20499;-59
2021/07/01 14:30:09;;;;;;;10.77;9.77;;;14.30;99.90;;;;;;4894267;29;20955;-59
2021/07/01 14:32:37;;;;;;;11.77;10.67;;;14.30;99.90;;;;;;4898274;29;20478;-59
2021/07/01 14:35:35;;;;;;;11.80;10.60;;;14.30;99.90;;;;;;4895626;29;20465;-59
2021/07/01 14:38:06;;;;;;;12.10;10.10;;;14.40;99.90;;;;;;4893372;29;20525;-59
2021/07/01 14:40:36;;;;;;;10.80;9.70;;;14.40;99.90;;;;;;4895019;29;20524;-60
2021/07/01 14:43:07;;;;;;;10.17;9.13;;;14.40;99.90;;;;;;4896045;29;20493;-59
2021/07/01 14:45:37;;;;;;;10.90;9.80;;;14.20;99.90;;;;;;4895118;29;20899;-61
2021/07/01 14:48:04;;;;;;;11.70;10.57;;;14.30;99.90;;;;;;4901497;29;20470;-59
2021/07/01 14:50:31;;;;;;;9.33;8.40;;;14.20;99.90;;;;;;4901990;29;20477;-60
2021/07/01 14:52:58;;;;;;;9.50;8.60;;;14.20;99.90;;;;;;4894072;29;20922;-60
2021/07/01 14:55:28;;;;;;;9.83;8.93;;;14.20;99.90;;;;;;4901812;29;20477;-60
2021/07/01 14:58:00;;;;;;;10.77;9.60;;;14.20;99.90;;;;;;4898727;29;20498;-59
2021/07/01 15:00:29;;;;;;;9.40;8.50;;;14.10;99.90;;;;;;4903823;29;20473;-61
2021/07/01 15:38:43;;;;;;;14.00;12.50;;;13.80;99.90;;;;;;5303362;23;20765;-59
2021/07/01 16:52:04;;;;;;;14.40;12.97;;;13.60;99.90;;;;;;5246502;23;20931;-60
2021/07/01 17:29:04;;;;;;;22.43;20.07;;;13.50;99.90;;;;;;5089066;23;20988;-61
2021/07/01 17:31:31;;;;;;;26.53;20.60;;;13.50;99.90;;;;;;4884335;29;20485;-60
2021/07/01 17:34:02;;;;;;;24.07;20.90;;;13.60;99.90;;;;;;4883152;29;20478;-61
2021/07/01 17:36:33;;;;;;;23.33;19.63;;;13.60;99.90;;;;;;4883495;29;20441;-61
2021/07/01 17:39:01;;;;;;;23.90;21.40;;;13.60;99.90;;;;;;4882821;29;20510;-61
2021/07/01 17:41:29;;;;;;;24.87;22.10;;;13.60;99.90;;;;;;4882949;29;20901;-62
2021/07/01 17:43:56;;;;;;;23.87;21.43;;;13.60;99.90;;;;;;4877414;29;20481;-61
2021/07/01 17:46:25;;;;;;;26.77;22.40;;;13.50;99.90;;;;;;4883123;29;20482;-61
2021/07/01 17:48:55;;;;;;;23.90;20.73;;;13.50;99.90;;;;;;4883800;29;20933;-62
2021/07/01 17:51:23;;;;;;;25.67;20.80;;;13.50;99.90;;;;;;4883882;29;20555;-61
2021/07/01 18:30:49;;;;;;;22.80;20.40;;;13.30;99.90;;;;;;5310759;23;20484;-60
2021/07/01 19:09:09;;;;;;;40.70;27.77;;;13.30;99.90;;;;;;4600720;23;20598;-61
2021/07/01 19:11:36;;;;;;;38.83;29.40;;;13.30;99.90;;;;;;4921568;29;20468;-61
2021/07/01 19:14:04;;;;;;;35.97;28.17;;;13.20;99.90;;;;;;4919709;29;20447;-61
2021/07/01 19:16:32;;;;;;;34.93;27.20;;;13.30;99.90;;;;;;4918798;29;20480;-61